createdAt,value
2022-11-16T00:00:05.839Z,92.192
2022-11-16T00:07:01.432Z,92.458
2022-11-16T00:14:02.165Z,92.458
2022-11-16T00:21:02.284Z,92.779
2022-11-16T00:28:01.935Z,92.779
2022-11-16T00:35:01.919Z,93.229
2022-11-16T00:42:01.820Z,93.229
2022-11-16T00:49:01.594Z,93.245
2022-11-16T00:56:01.593Z,93.245
2022-11-16T01:00:02.176Z,93.52
2022-11-16T01:07:02.194Z,93.52
2022-11-16T01:14:02.034Z,94.06
2022-11-16T01:21:02.207Z,94.06
2022-11-16T01:28:01.463Z,94.196
2022-11-16T01:35:02.048Z,94.196
2022-11-16T01:42:01.782Z,94.489
2022-11-16T01:49:01.710Z,94.833
2022-11-16T01:56:01.722Z,94.833
2022-11-16T02:00:02.313Z,94.833
2022-11-16T02:07:02.067Z,94.752
2022-11-16T02:14:01.803Z,94.93
2022-11-16T02:21:01.907Z,94.93
2022-11-16T02:28:01.795Z,95.127
2022-11-16T02:35:01.508Z,95.127
2022-11-16T02:42:01.880Z,95.359
2022-11-16T02:49:02.107Z,95.359
2022-11-16T02:56:02.107Z,95.344
2022-11-16T03:00:01.664Z,95.344
2022-11-16T03:07:01.738Z,95.482
2022-11-16T03:14:02.041Z,95.482
2022-11-16T03:21:01.935Z,95.679
2022-11-16T03:28:01.912Z,95.679
2022-11-16T03:35:02.648Z,95.709
2022-11-16T03:42:01.456Z,95.709
2022-11-16T03:49:02.052Z,95.631
2022-11-16T03:56:02.293Z,95.631
2022-11-16T04:00:01.842Z,95.666
2022-11-16T04:07:01.700Z,95.666
2022-11-16T04:14:04.138Z,95.706
2022-11-16T04:21:01.365Z,95.706
2022-11-16T04:28:01.702Z,95.803
2022-11-16T04:35:02.455Z,95.738
2022-11-16T04:42:01.875Z,95.738
2022-11-16T04:49:01.591Z,95.818
2022-11-16T04:56:01.529Z,95.818
2022-11-16T05:00:02.125Z,95.818
2022-11-16T05:07:01.405Z,95.875
2022-11-16T05:14:01.627Z,95.851
2022-11-16T05:21:01.506Z,95.851
2022-11-16T05:28:02.291Z,95.777
2022-11-16T05:35:02.492Z,95.777
2022-11-16T05:42:01.855Z,95.735
2022-11-16T05:49:01.381Z,95.735
2022-11-16T05:56:01.702Z,95.627
2022-11-16T06:00:02.503Z,95.627
2022-11-16T06:07:01.620Z,95.456
2022-11-16T06:14:02.161Z,95.456
2022-11-16T06:21:01.712Z,95.338
2022-11-16T06:28:06.637Z,95.338
2022-11-16T06:35:01.788Z,95.257
2022-11-16T06:42:01.421Z,95.257
2022-11-16T06:49:01.826Z,95.193
2022-11-16T06:56:01.639Z,95.193
2022-11-16T07:00:02.250Z,95.002
2022-11-16T07:07:02.012Z,95.002
2022-11-16T07:14:01.782Z,94.808
2022-11-16T07:21:02.207Z,94.808
2022-11-16T07:28:01.633Z,94.493
2022-11-16T07:35:02.257Z,94.416
2022-11-16T07:42:01.970Z,94.416
2022-11-16T07:49:04.025Z,94.325
2022-11-16T07:56:02.047Z,94.325
2022-11-16T08:00:01.637Z,94.325
2022-11-16T08:07:01.501Z,94.315
2022-11-16T08:14:01.453Z,94.193
2022-11-16T08:21:01.730Z,94.193
2022-11-16T08:28:02.280Z,94.12
2022-11-16T08:35:02.529Z,94.12
2022-11-16T08:42:01.781Z,94.152
2022-11-16T08:49:01.897Z,94.152
2022-11-16T08:56:01.978Z,94.163
2022-11-16T09:00:01.523Z,94.163
2022-11-16T09:07:01.435Z,94.145
2022-11-16T09:14:01.988Z,94.145
2022-11-16T09:21:01.983Z,93.791
2022-11-16T09:28:02.239Z,93.791
2022-11-16T09:35:02.434Z,93.632
2022-11-16T09:42:01.581Z,93.632
2022-11-16T09:49:02.024Z,93.372
2022-11-16T09:56:01.990Z,93.372
2022-11-16T10:00:01.547Z,92.653
2022-11-16T10:07:01.878Z,92.653
2022-11-16T10:14:04.147Z,91.864
2022-11-16T10:21:01.380Z,91.864
2022-11-16T10:28:01.820Z,91.721
2022-11-16T10:35:01.762Z,90.962
2022-11-16T10:42:07.106Z,90.962
2022-11-16T10:49:02.283Z,90.38
2022-11-16T10:56:02.135Z,90.38
2022-11-16T11:00:01.687Z,90.38
2022-11-16T11:07:02.124Z,89.653
2022-11-16T11:14:01.502Z,89.551
2022-11-16T11:21:01.744Z,89.551
2022-11-16T11:28:02.129Z,88.535
2022-11-16T11:35:02.110Z,88.535
2022-11-16T11:42:01.692Z,87.899
2022-11-16T11:49:02.014Z,87.899
2022-11-16T11:56:02.029Z,87.562
2022-11-16T12:00:01.612Z,87.562
2022-11-16T12:07:01.881Z,87.541
2022-11-16T12:14:01.828Z,87.541
2022-11-16T12:21:01.455Z,87.412
2022-11-16T12:28:01.633Z,87.412
2022-11-16T12:35:02.631Z,86.879
2022-11-16T12:42:01.788Z,86.879
2022-11-16T12:49:02.007Z,86.966
2022-11-16T12:56:01.494Z,86.966
2022-11-16T13:00:02.039Z,85.838
2022-11-16T13:07:04.221Z,85.838
2022-11-16T13:14:01.701Z,85.95
2022-11-16T13:21:01.826Z,85.95
2022-11-16T13:28:01.568Z,85.143
2022-11-16T13:35:02.426Z,84.771
2022-11-16T13:42:01.541Z,84.771
2022-11-16T13:49:01.670Z,84.725
2022-11-16T13:56:01.359Z,84.725
2022-11-16T14:00:01.937Z,84.725
2022-11-16T14:07:01.991Z,84.284
2022-11-16T14:14:01.908Z,83.769
2022-11-16T14:21:02.170Z,83.769
2022-11-16T14:28:01.618Z,84.083
2022-11-16T14:35:01.995Z,84.083
2022-11-16T14:42:02.047Z,83.653
2022-11-16T14:49:01.579Z,83.653
2022-11-16T14:56:02.044Z,83.245
2022-11-16T15:00:01.573Z,83.245
2022-11-16T15:07:01.792Z,83.503
2022-11-16T15:14:01.297Z,83.503
2022-11-16T15:21:01.748Z,84.136
2022-11-16T15:28:01.361Z,84.136
2022-11-16T15:35:05.372Z,84.402
2022-11-16T15:42:04.033Z,84.402
2022-11-16T15:49:01.809Z,84.725
2022-11-16T15:56:01.857Z,84.487
2022-11-16T16:00:02.566Z,84.487
2022-11-16T16:07:02.169Z,84.487
2022-11-16T16:14:01.518Z,84.042
2022-11-16T16:21:02.258Z,84.042
2022-11-16T16:28:02.187Z,84.367
2022-11-16T16:35:02.289Z,84.644
2022-11-16T16:42:01.297Z,84.644
2022-11-16T16:49:01.721Z,84.041
2022-11-16T16:56:01.998Z,84.041
2022-11-16T17:00:01.631Z,84.041
2022-11-16T17:07:01.538Z,84.354
2022-11-16T17:14:02.080Z,84.305
2022-11-16T17:21:01.375Z,84.305
2022-11-16T17:28:01.726Z,84.379
2022-11-16T17:35:01.636Z,84.379
2022-11-16T17:42:01.483Z,84.375
2022-11-16T17:49:01.590Z,84.375
2022-11-16T17:56:01.335Z,84.531
2022-11-16T18:00:01.928Z,84.531
2022-11-16T18:07:02.016Z,84.592
2022-11-16T18:14:01.982Z,84.592
2022-11-16T18:21:01.792Z,84.709
2022-11-16T18:28:01.440Z,84.709
2022-11-16T18:35:02.280Z,84.707
2022-11-16T18:42:02.236Z,84.707
2022-11-16T18:49:01.687Z,84.92
2022-11-16T18:56:01.717Z,85.321
2022-11-16T19:00:02.291Z,85.321
2022-11-16T19:07:01.673Z,85.321
2022-11-16T19:14:01.795Z,85.517
2022-11-16T19:21:01.485Z,85.517
2022-11-16T19:28:01.637Z,85.75
2022-11-16T19:35:01.858Z,85.604
2022-11-16T19:42:02.187Z,85.604
2022-11-16T19:49:01.802Z,86.088
2022-11-16T19:56:01.385Z,86.088
2022-11-16T20:00:01.924Z,86.625
2022-11-16T20:07:01.735Z,86.625
2022-11-16T20:14:02.232Z,86.463
2022-11-16T20:21:01.654Z,86.463
2022-11-16T20:28:01.563Z,86.555
2022-11-16T20:35:01.893Z,86.555
2022-11-16T20:42:01.861Z,86.299
2022-11-16T20:49:01.983Z,86.299
2022-11-16T20:56:02.123Z,86.627
2022-11-16T21:00:01.653Z,86.627
2022-11-16T21:07:01.903Z,86.572
2022-11-16T21:14:02.005Z,86.572
2022-11-16T21:21:01.634Z,86.16
2022-11-16T21:28:01.594Z,86.16
2022-11-16T21:35:01.512Z,86.314
2022-11-16T21:42:01.989Z,86.314
2022-11-16T21:49:01.920Z,85.891
2022-11-16T21:56:02.001Z,85.894
2022-11-16T22:00:01.520Z,85.894
2022-11-16T22:07:01.497Z,85.894
2022-11-16T22:14:01.469Z,85.798
2022-11-16T22:21:01.975Z,85.797
2022-11-16T22:28:20.532Z,85.797
2022-11-16T22:35:01.842Z,85.725
2022-11-16T22:42:01.370Z,85.725
2022-11-16T22:49:01.525Z,86.718
2022-11-16T22:56:02.218Z,86.718
2022-11-16T23:00:01.786Z,87.492
2022-11-16T23:07:01.952Z,87.492
2022-11-16T23:14:01.747Z,88.991
2022-11-16T23:21:02.105Z,88.991
2022-11-16T23:28:01.793Z,89.708
2022-11-16T23:35:01.557Z,89.708
2022-11-16T23:42:01.935Z,90.194
2022-11-16T23:49:02.101Z,90.194
2022-11-16T23:56:05.774Z,90.568
